createdAt,value
2019-01-29T00:01:13.898Z,5.60
2019-01-29T00:03:41.534Z,5.30
2019-01-29T00:06:09.177Z,4.67
2019-01-29T00:08:36.860Z,4.80
2019-01-29T00:11:04.823Z,5.87
2019-01-29T00:13:35.252Z,4.80
2019-01-29T00:16:03.729Z,5.80
2019-01-29T00:18:31.278Z,5.93
2019-01-29T00:20:59.263Z,5.97
2019-01-29T00:23:27.131Z,6.03
2019-01-29T00:25:54.734Z,6.07
2019-01-29T00:28:22.433Z,6.33
2019-01-29T00:30:50.094Z,6.70
2019-01-29T00:33:18.066Z,6.50
2019-01-29T00:35:46.239Z,6.50
2019-01-29T00:38:14.003Z,7.10
2019-01-29T00:40:41.973Z,6.83
2019-01-29T00:43:10.161Z,6.60
2019-01-29T00:45:37.955Z,6.93
2019-01-29T00:48:05.870Z,7.17
2019-01-29T00:50:36.891Z,6.37
2019-01-29T00:53:04.727Z,7.23
2019-01-29T00:55:32.386Z,6.50
2019-01-29T00:58:00.127Z,7.80
2019-01-29T01:00:28.265Z,7.07
2019-01-29T01:02:56.362Z,6.30
2019-01-29T01:05:23.948Z,7.33
2019-01-29T01:07:52.002Z,7.03
2019-01-29T01:10:20.448Z,6.97
2019-01-29T01:12:48.528Z,7.60
2019-01-29T01:15:18.522Z,6.80
2019-01-29T01:17:46.193Z,7.53
2019-01-29T01:20:14.885Z,7.97
2019-01-29T01:22:50.321Z,7.97
2019-01-29T01:25:12.565Z,8.93
2019-01-29T01:27:40.392Z,9.30
2019-01-29T01:30:09.860Z,9.27
2019-01-29T01:32:38.097Z,9.67
2019-01-29T01:35:05.961Z,8.97
2019-01-29T01:37:33.919Z,8.63
2019-01-29T01:40:02.003Z,8.87
2019-01-29T01:42:29.821Z,8.20
2019-01-29T01:44:57.750Z,8.17
2019-01-29T01:47:25.603Z,8.47
2019-01-29T01:49:53.624Z,7.93
2019-01-29T01:52:21.574Z,7.33
2019-01-29T01:54:49.497Z,7.33
2019-01-29T01:57:17.505Z,7.87
2019-01-29T01:59:45.367Z,7.20
2019-01-29T02:02:13.315Z,7.30
2019-01-29T02:04:41.245Z,7.57
2019-01-29T02:07:11.597Z,7.23
2019-01-29T02:09:39.395Z,6.47
2019-01-29T02:12:07.321Z,7.70
2019-01-29T02:14:35.124Z,7.30
2019-01-29T02:17:05.611Z,6.73
2019-01-29T02:19:33.514Z,6.97
2019-01-29T02:22:01.289Z,6.70
2019-01-29T02:24:29.549Z,6.53
2019-01-29T02:26:57.273Z,6.03
2019-01-29T02:29:25.073Z,6.50
2019-01-29T02:31:52.902Z,5.63
2019-01-29T02:34:20.644Z,5.93
2019-01-29T02:36:48.426Z,7.53
2019-01-29T02:39:16.198Z,6.90
2019-01-29T02:41:44.377Z,6.53
2019-01-29T02:44:12.130Z,7.40
2019-01-29T02:46:39.817Z,5.73
2019-01-29T02:49:07.485Z,6.20
2019-01-29T02:51:35.180Z,6.37
2019-01-29T02:54:03.095Z,6.20
2019-01-29T02:56:30.842Z,6.43
2019-01-29T02:58:58.911Z,6.40
2019-01-29T03:01:26.777Z,6.50
2019-01-29T03:03:54.772Z,6.77
2019-01-29T03:06:22.721Z,6.43
2019-01-29T03:08:50.648Z,6.67
2019-01-29T03:11:18.954Z,6.70
2019-01-29T03:13:46.494Z,7.00
2019-01-29T03:16:14.337Z,5.97
2019-01-29T03:18:42.151Z,5.73
2019-01-29T03:21:09.906Z,5.63
2019-01-29T03:23:37.692Z,5.87
2019-01-29T03:26:05.468Z,6.23
2019-01-29T03:28:33.316Z,5.60
2019-01-29T03:31:01.029Z,6.37
2019-01-29T03:33:28.627Z,5.50
2019-01-29T03:35:56.524Z,6.60
2019-01-29T03:38:24.446Z,6.77
2019-01-29T03:40:52.554Z,6.43
2019-01-29T03:43:20.200Z,6.53
2019-01-29T03:45:47.948Z,6.80
2019-01-29T03:48:15.645Z,7.67
2019-01-29T03:50:43.361Z,7.90
2019-01-29T03:53:12.867Z,7.80
2019-01-29T03:55:40.645Z,9.47
2019-01-29T03:58:08.383Z,6.33
2019-01-29T04:00:36.156Z,8.07
2019-01-29T04:03:03.826Z,8.00
2019-01-29T04:05:31.444Z,7.57
2019-01-29T04:07:59.450Z,7.80
2019-01-29T04:10:27.233Z,7.40
2019-01-29T04:12:55.392Z,6.87
2019-01-29T04:15:23.487Z,7.67
2019-01-29T04:17:54.098Z,7.40
2019-01-29T04:20:21.739Z,7.53
2019-01-29T04:22:49.523Z,7.23
2019-01-29T04:25:17.233Z,7.30
2019-01-29T04:27:44.944Z,7.53
2019-01-29T04:30:13.979Z,7.90
2019-01-29T04:32:41.607Z,8.00
2019-01-29T04:35:09.545Z,7.60
2019-01-29T04:37:37.664Z,8.20
2019-01-29T04:40:06.208Z,8.03
2019-01-29T04:42:34.412Z,8.60
2019-01-29T04:45:01.975Z,8.17
2019-01-29T04:47:29.647Z,7.93
2019-01-29T04:49:57.453Z,7.63
2019-01-29T04:52:26.761Z,7.83
2019-01-29T04:54:57.667Z,8.83
2019-01-29T04:57:28.057Z,7.50
2019-01-29T04:59:55.783Z,8.13
2019-01-29T05:02:24.611Z,8.33
2019-01-29T05:04:52.434Z,8.17
2019-01-29T05:07:20.508Z,8.27
2019-01-29T05:09:48.578Z,9.30
2019-01-29T05:12:16.645Z,11.63
2019-01-29T05:14:44.440Z,12.47
2019-01-29T05:17:12.506Z,47.67
2019-01-29T05:19:40.558Z,14.70
2019-01-29T05:22:08.831Z,17.83
2019-01-29T05:24:37.084Z,18.33
2019-01-29T05:27:05.066Z,25.17
2019-01-29T05:29:32.923Z,45.40
2019-01-29T05:32:00.759Z,18.13
2019-01-29T05:34:28.555Z,12.20
2019-01-29T05:36:56.528Z,10.47
2019-01-29T05:39:24.128Z,13.57
2019-01-29T05:41:52.565Z,8.43
2019-01-29T05:44:20.195Z,9.00
2019-01-29T05:46:47.987Z,13.33
2019-01-29T05:49:15.850Z,9.20
2019-01-29T05:51:43.440Z,14.50
2019-01-29T05:54:16.421Z,15.63
2019-01-29T05:56:40.918Z,10.27
2019-01-29T05:59:09.104Z,41.43
2019-01-29T06:01:36.949Z,8.97
2019-01-29T06:04:05.095Z,9.63
2019-01-29T06:06:32.671Z,10.13
2019-01-29T06:09:00.565Z,13.03
2019-01-29T06:11:28.373Z,9.63
2019-01-29T06:13:56.466Z,11.03
2019-01-29T06:16:24.340Z,8.57
2019-01-29T06:18:52.386Z,10.20
2019-01-29T06:21:20.247Z,9.53
2019-01-29T06:23:48.012Z,12.30
2019-01-29T06:26:15.566Z,8.67
2019-01-29T06:28:43.316Z,8.33
2019-01-29T06:31:11.112Z,8.17
2019-01-29T06:33:39.165Z,9.80
2019-01-29T06:36:07.008Z,9.17
2019-01-29T06:38:34.791Z,8.23
2019-01-29T06:41:02.555Z,8.77
2019-01-29T06:43:30.215Z,8.47
2019-01-29T06:45:58.211Z,8.90
2019-01-29T06:48:26.475Z,8.80
2019-01-29T06:50:54.527Z,9.80
2019-01-29T06:53:22.302Z,9.97
2019-01-29T06:55:50.271Z,10.40
2019-01-29T06:58:17.976Z,10.20
2019-01-29T07:00:45.799Z,10.80
2019-01-29T07:03:16.417Z,12.10
2019-01-29T07:05:44.539Z,11.70
2019-01-29T07:08:12.663Z,13.73
2019-01-29T07:10:40.564Z,10.70
2019-01-29T07:13:08.394Z,10.53
2019-01-29T07:16:12.522Z,10.43
2019-01-29T07:18:58.186Z,10.97
2019-01-29T07:21:26.464Z,12.10
2019-01-29T07:23:54.222Z,12.57
2019-01-29T07:26:21.949Z,11.53
2019-01-29T07:28:49.964Z,13.70
2019-01-29T07:31:17.946Z,13.67
2019-01-29T07:33:46.319Z,14.43
2019-01-29T07:36:14.143Z,12.67
2019-01-29T07:38:42.135Z,13.23
2019-01-29T07:41:10.030Z,13.63
2019-01-29T07:43:40.568Z,14.00
2019-01-29T07:46:08.908Z,14.93
2019-01-29T07:48:36.710Z,14.70
2019-01-29T07:51:04.603Z,15.73
2019-01-29T07:53:32.403Z,16.07
2019-01-29T07:55:59.957Z,17.13
2019-01-29T07:58:28.238Z,16.90
2019-01-29T08:00:55.993Z,18.40
2019-01-29T08:03:23.662Z,18.40
2019-01-29T08:05:51.652Z,17.57
2019-01-29T08:08:19.600Z,18.30
2019-01-29T08:10:47.566Z,18.73
2019-01-29T08:13:15.750Z,20.37
2019-01-29T08:15:43.381Z,19.00
2019-01-29T08:18:11.121Z,18.40
2019-01-29T08:20:38.814Z,19.40
2019-01-29T08:23:06.687Z,19.90
2019-01-29T08:25:34.551Z,18.90
2019-01-29T08:28:02.518Z,18.17
2019-01-29T08:30:30.414Z,18.27
2019-01-29T08:32:58.860Z,17.83
2019-01-29T08:35:27.031Z,18.23
2019-01-29T08:37:55.191Z,19.53
2019-01-29T08:40:23.511Z,20.23
2019-01-29T08:42:51.659Z,19.37
2019-01-29T08:45:19.838Z,21.33
2019-01-29T08:47:47.596Z,20.90
2019-01-29T08:50:16.932Z,20.30
2019-01-29T08:52:44.857Z,23.07
2019-01-29T08:55:12.930Z,21.73
2019-01-29T08:57:40.746Z,23.07
2019-01-29T09:00:09.336Z,22.63
2019-01-29T09:02:37.234Z,22.03
2019-01-29T09:05:05.808Z,21.70
2019-01-29T09:07:33.657Z,22.60
2019-01-29T09:10:01.490Z,21.17
2019-01-29T09:12:29.206Z,20.40
2019-01-29T09:14:57.283Z,21.63
2019-01-29T09:17:25.154Z,19.90
2019-01-29T09:19:52.913Z,19.10
2019-01-29T09:22:21.000Z,20.37
2019-01-29T09:24:49.047Z,19.23
2019-01-29T09:27:16.816Z,21.17
2019-01-29T09:29:44.789Z,18.77
2019-01-29T09:32:12.671Z,20.40
2019-01-29T09:34:40.535Z,20.30
2019-01-29T09:37:08.690Z,20.17
2019-01-29T09:39:36.449Z,19.93
2019-01-29T09:42:04.933Z,19.97
2019-01-29T09:44:32.691Z,20.40
2019-01-29T09:47:00.908Z,20.30
2019-01-29T09:49:28.937Z,20.43
2019-01-29T09:51:57.209Z,18.10
2019-01-29T09:54:25.315Z,19.67
2019-01-29T09:56:53.181Z,20.20
2019-01-29T09:59:21.177Z,20.37
2019-01-29T10:01:49.178Z,18.93
2019-01-29T10:04:16.935Z,19.50
2019-01-29T10:06:44.703Z,19.60
2019-01-29T10:09:12.802Z,18.53
2019-01-29T10:11:40.503Z,18.83
2019-01-29T10:14:08.224Z,18.87
2019-01-29T10:16:36.267Z,18.47
2019-01-29T10:19:04.372Z,19.47
2019-01-29T10:21:32.311Z,19.37
2019-01-29T10:24:00.059Z,20.33
2019-01-29T10:26:28.549Z,19.63
2019-01-29T10:28:56.514Z,21.67
2019-01-29T10:31:24.429Z,20.47
2019-01-29T10:33:52.424Z,21.17
2019-01-29T10:36:20.319Z,19.07
2019-01-29T10:38:49.618Z,19.37
2019-01-29T10:41:17.492Z,18.50
2019-01-29T10:43:45.245Z,17.57
2019-01-29T10:46:13.356Z,17.07
2019-01-29T10:48:41.133Z,17.03
2019-01-29T10:51:09.554Z,16.50
2019-01-29T10:53:37.233Z,14.93
2019-01-29T10:56:05.188Z,15.10
2019-01-29T10:58:32.998Z,16.07
2019-01-29T11:01:01.337Z,14.13
2019-01-29T11:03:29.808Z,14.67
2019-01-29T11:05:58.082Z,14.50
2019-01-29T11:08:26.164Z,13.73
2019-01-29T11:10:54.221Z,13.77
2019-01-29T11:13:22.108Z,13.20
2019-01-29T11:15:49.809Z,15.00
2019-01-29T11:18:17.781Z,13.20
2019-01-29T11:20:46.203Z,13.60
2019-01-29T11:23:14.281Z,12.83
2019-01-29T11:25:42.100Z,11.37
2019-01-29T11:28:10.206Z,10.70
2019-01-29T11:30:38.396Z,10.17
2019-01-29T11:33:06.546Z,12.13
2019-01-29T11:35:34.185Z,10.30
2019-01-29T11:38:02.188Z,9.97
2019-01-29T11:40:30.037Z,10.13
2019-01-29T11:42:57.910Z,11.77
2019-01-29T11:45:29.679Z,9.30
2019-01-29T11:47:57.646Z,9.17
2019-01-29T11:50:25.803Z,9.67
2019-01-29T11:52:53.770Z,8.70
2019-01-29T11:55:21.593Z,9.17
2019-01-29T11:57:49.502Z,9.70
2019-01-29T12:00:22.652Z,8.80
2019-01-29T12:02:50.404Z,7.50
2019-01-29T12:05:18.421Z,9.03
2019-01-29T12:07:46.201Z,8.27
2019-01-29T12:10:14.299Z,7.23
2019-01-29T12:12:42.083Z,6.40
2019-01-29T12:15:11.169Z,6.63
2019-01-29T12:17:39.297Z,6.63
2019-01-29T12:20:07.767Z,6.60
2019-01-29T12:22:35.517Z,7.10
2019-01-29T12:25:03.612Z,6.80
2019-01-29T12:27:31.519Z,6.97
2019-01-29T12:29:59.732Z,6.67
2019-01-29T12:32:27.889Z,6.50
2019-01-29T12:34:55.570Z,6.33
2019-01-29T12:37:23.263Z,6.70
2019-01-29T12:39:50.980Z,6.63
2019-01-29T12:42:18.855Z,5.90
2019-01-29T12:44:46.722Z,6.53
2019-01-29T12:47:14.590Z,6.53
2019-01-29T12:49:42.924Z,6.33
2019-01-29T12:52:42.378Z,6.90
2019-01-29T12:55:10.715Z,6.13
2019-01-29T12:57:38.609Z,6.27
2019-01-29T13:00:07.463Z,6.00
2019-01-29T13:02:35.368Z,6.73
2019-01-29T13:05:03.590Z,6.70
2019-01-29T13:07:31.925Z,6.43
2019-01-29T13:09:59.854Z,9.00
2019-01-29T13:12:30.381Z,7.50
2019-01-29T13:14:58.007Z,6.27
2019-01-29T13:17:25.844Z,5.97
2019-01-29T13:19:53.699Z,6.90
2019-01-29T13:22:21.264Z,5.73
2019-01-29T13:24:49.111Z,5.47
2019-01-29T13:27:17.192Z,5.03
2019-01-29T13:29:45.270Z,5.50
2019-01-29T13:32:13.053Z,5.23
2019-01-29T13:34:40.972Z,4.80
2019-01-29T13:37:08.979Z,4.43
2019-01-29T13:39:37.060Z,5.23
2019-01-29T13:42:05.121Z,5.33
2019-01-29T13:44:33.174Z,5.27
2019-01-29T13:47:01.224Z,5.23
2019-01-29T13:49:29.108Z,4.53
2019-01-29T13:51:59.411Z,4.80
2019-01-29T13:54:27.136Z,4.23
2019-01-29T13:56:55.189Z,4.47
2019-01-29T13:59:23.435Z,4.30
2019-01-29T14:01:52.008Z,4.53
2019-01-29T14:04:19.690Z,5.27
2019-01-29T14:06:47.657Z,5.10
2019-01-29T14:09:15.733Z,4.77
2019-01-29T14:11:43.702Z,4.33
2019-01-29T14:14:11.893Z,5.20
2019-01-29T14:16:39.923Z,4.63
2019-01-29T14:19:07.915Z,4.60
2019-01-29T14:21:35.863Z,5.43
2019-01-29T14:24:03.873Z,4.87
2019-01-29T14:26:31.693Z,5.00
2019-01-29T14:28:59.857Z,5.20
2019-01-29T14:31:27.765Z,4.77
2019-01-29T14:33:55.697Z,5.03
2019-01-29T14:36:23.624Z,6.87
2019-01-29T14:39:13.706Z,6.00
2019-01-29T14:41:41.599Z,5.50
2019-01-29T14:44:20.475Z,7.37
2019-01-29T14:46:48.297Z,5.37
2019-01-29T14:49:16.186Z,5.27
2019-01-29T14:51:44.049Z,6.63
2019-01-29T14:54:12.015Z,5.63
2019-01-29T14:56:39.982Z,6.83
2019-01-29T14:59:07.948Z,6.27
2019-01-29T15:01:37.009Z,6.10
2019-01-29T15:04:04.694Z,5.30
2019-01-29T15:06:33.101Z,5.40
2019-01-29T15:09:01.063Z,6.57
2019-01-29T15:11:28.737Z,5.73
2019-01-29T15:13:56.773Z,6.17
2019-01-29T15:16:53.614Z,6.27
2019-01-29T15:19:23.679Z,6.33
2019-01-29T15:21:51.458Z,5.83
2019-01-29T15:24:19.369Z,5.27
2019-01-29T15:26:47.125Z,7.13
2019-01-29T15:29:14.826Z,6.53
2019-01-29T15:31:42.384Z,7.13
2019-01-29T15:34:10.226Z,7.13
2019-01-29T15:36:37.986Z,6.93
2019-01-29T15:39:07.683Z,6.07
2019-01-29T15:41:35.268Z,6.53
2019-01-29T15:44:03.028Z,6.70
2019-01-29T15:46:30.804Z,6.63
2019-01-29T15:48:58.527Z,7.27
2019-01-29T15:51:26.498Z,7.50
2019-01-29T15:53:54.261Z,6.23
2019-01-29T15:56:22.069Z,7.00
2019-01-29T15:58:50.060Z,7.10
2019-01-29T16:01:17.876Z,6.47
2019-01-29T16:03:45.628Z,6.63
2019-01-29T16:06:13.337Z,5.70
2019-01-29T16:08:40.985Z,11.30
2019-01-29T16:11:08.861Z,9.00
2019-01-29T16:13:36.972Z,6.50
2019-01-29T16:16:04.659Z,5.80
2019-01-29T16:18:32.442Z,5.97
2019-01-29T16:21:00.411Z,5.53
2019-01-29T16:23:28.132Z,5.63
2019-01-29T16:25:55.827Z,4.57
2019-01-29T16:28:23.871Z,4.73
2019-01-29T16:30:51.765Z,5.73
2019-01-29T16:33:19.648Z,5.87
2019-01-29T16:35:47.705Z,5.87
2019-01-29T16:38:15.535Z,5.63
2019-01-29T16:40:43.501Z,4.93
2019-01-29T16:43:11.563Z,5.00
2019-01-29T16:45:39.483Z,4.97
2019-01-29T16:48:07.820Z,5.83
2019-01-29T16:50:35.672Z,5.50
2019-01-29T16:53:03.978Z,5.93
2019-01-29T16:55:31.895Z,5.93
2019-01-29T16:57:59.881Z,5.83
2019-01-29T17:00:28.598Z,5.73
2019-01-29T17:02:56.236Z,7.10
2019-01-29T17:05:24.196Z,7.80
2019-01-29T17:07:52.270Z,7.97
2019-01-29T17:10:20.215Z,8.33
2019-01-29T17:12:48.102Z,8.07
2019-01-29T17:15:17.417Z,9.27
2019-01-29T17:17:45.383Z,8.63
2019-01-29T17:20:20.199Z,8.30
2019-01-29T17:22:47.954Z,22.07
2019-01-29T17:25:15.929Z,11.40
2019-01-29T17:27:43.707Z,10.33
2019-01-29T17:30:22.200Z,10.90
2019-01-29T17:32:49.896Z,10.07
2019-01-29T17:35:17.530Z,9.97
2019-01-29T17:37:45.229Z,10.20
2019-01-29T17:40:13.666Z,11.03
2019-01-29T17:42:41.579Z,12.03
2019-01-29T17:45:10.524Z,9.73
2019-01-29T17:47:38.016Z,9.20
2019-01-29T17:50:07.618Z,8.93
2019-01-29T17:52:35.183Z,9.93
2019-01-29T17:55:03.463Z,10.07
2019-01-29T17:57:31.280Z,8.30
2019-01-29T17:59:59.217Z,9.13
2019-01-29T18:02:27.022Z,9.37
2019-01-29T18:04:54.936Z,9.73
2019-01-29T18:07:22.963Z,10.93
2019-01-29T18:09:50.936Z,10.20
2019-01-29T18:12:18.776Z,9.60
2019-01-29T18:14:46.389Z,9.53
2019-01-29T18:17:14.073Z,10.17
2019-01-29T18:19:42.071Z,9.63
2019-01-29T18:22:09.949Z,9.20
2019-01-29T18:24:37.638Z,10.20
2019-01-29T18:27:05.406Z,11.03
2019-01-29T18:29:33.077Z,11.10
2019-01-29T18:32:00.680Z,10.97
2019-01-29T18:34:28.547Z,10.20
2019-01-29T18:36:56.617Z,10.65
2019-01-29T18:39:24.259Z,12.33
2019-01-29T18:41:51.802Z,11.83
2019-01-29T18:44:32.086Z,12.43
2019-01-29T18:47:01.326Z,11.53
2019-01-29T18:49:30.791Z,11.20
2019-01-29T18:51:59.924Z,12.17
2019-01-29T18:54:29.087Z,12.07
2019-01-29T18:56:58.164Z,12.73
2019-01-29T18:59:30.018Z,13.17
2019-01-29T19:02:02.504Z,11.75
2019-01-29T19:04:31.736Z,10.63
2019-01-29T19:07:00.704Z,12.47
2019-01-29T19:09:29.962Z,13.53
2019-01-29T19:11:59.056Z,14.80
2019-01-29T19:14:28.691Z,14.83
2019-01-29T19:16:57.888Z,18.80
2019-01-29T19:19:27.420Z,14.73
2019-01-29T19:21:56.891Z,15.30
2019-01-29T19:24:26.282Z,15.30
2019-01-29T19:26:56.542Z,20.97
2019-01-29T19:29:25.819Z,15.53
2019-01-29T19:31:54.786Z,16.52
2019-01-29T19:34:24.432Z,16.50
2019-01-29T19:36:53.855Z,15.50
2019-01-29T19:39:23.231Z,14.53
2019-01-29T19:41:52.835Z,15.20
2019-01-29T19:44:22.484Z,16.07
2019-01-29T19:46:52.139Z,15.57
2019-01-29T19:49:21.912Z,14.00
2019-01-29T19:51:51.245Z,14.07
2019-01-29T19:54:20.522Z,14.17
2019-01-29T19:56:50.151Z,14.90
2019-01-29T19:59:19.561Z,16.12
2019-01-29T20:01:49.013Z,15.72
2019-01-29T20:04:18.655Z,16.00
2019-01-29T20:06:48.084Z,16.00
2019-01-29T20:09:17.554Z,16.82
2019-01-29T20:11:47.327Z,16.23
2019-01-29T20:14:16.559Z,15.72
2019-01-29T20:16:46.071Z,16.07
2019-01-29T20:19:15.923Z,17.07
2019-01-29T20:21:45.171Z,17.57
2019-01-29T20:24:16.895Z,17.67
2019-01-29T20:26:45.747Z,18.65
2019-01-29T20:29:15.166Z,22.22
2019-01-29T20:31:44.714Z,23.05
2019-01-29T20:34:14.166Z,22.40
2019-01-29T20:36:46.110Z,19.50
2019-01-29T20:39:14.554Z,17.95
2019-01-29T20:41:45.519Z,19.48
2019-01-29T20:44:14.644Z,19.87
2019-01-29T20:46:44.126Z,20.10
2019-01-29T20:49:13.226Z,18.48
2019-01-29T20:51:42.465Z,18.52
2019-01-29T20:54:12.020Z,16.42
2019-01-29T20:56:41.545Z,17.42
2019-01-29T20:59:11.054Z,17.23
2019-01-29T21:01:40.653Z,16.20
2019-01-29T21:04:10.276Z,15.25
2019-01-29T21:06:40.152Z,16.17
2019-01-29T21:09:10.073Z,20.30
2019-01-29T21:11:40.135Z,18.80
2019-01-29T21:14:09.571Z,19.60
2019-01-29T21:16:39.052Z,16.93
2019-01-29T21:19:08.587Z,17.65
2019-01-29T21:21:37.986Z,15.40
2019-01-29T21:24:07.496Z,14.95
2019-01-29T21:26:37.056Z,14.98
2019-01-29T21:29:06.649Z,15.78
2019-01-29T21:31:36.000Z,20.10
2019-01-29T21:34:05.220Z,20.92
2019-01-29T21:36:34.829Z,23.42
2019-01-29T21:39:05.938Z,22.95
2019-01-29T21:41:35.363Z,22.48
2019-01-29T21:44:05.074Z,31.42
2019-01-29T21:46:34.460Z,21.30
2019-01-29T21:49:03.721Z,19.52
2019-01-29T21:51:36.041Z,20.72
2019-01-29T21:54:05.429Z,22.75
2019-01-29T21:56:35.117Z,21.35
2019-01-29T21:59:13.130Z,27.55
2019-01-29T22:01:36.247Z,26.48
2019-01-29T22:04:05.806Z,25.85
2019-01-29T22:06:35.389Z,22.07
2019-01-29T22:09:07.546Z,24.60
2019-01-29T22:11:37.512Z,22.20
2019-01-29T22:14:06.989Z,20.32
2019-01-29T22:16:36.416Z,18.80
2019-01-29T22:19:06.198Z,18.20
2019-01-29T22:21:35.585Z,18.45
2019-01-29T22:24:06.010Z,16.45
2019-01-29T22:26:35.379Z,17.02
2019-01-29T22:29:04.839Z,17.17
2019-01-29T22:31:34.507Z,16.97
2019-01-29T22:34:06.203Z,15.70
2019-01-29T22:36:35.498Z,18.07
2019-01-29T22:39:07.416Z,15.10
2019-01-29T22:41:37.086Z,15.98
2019-01-29T22:44:09.854Z,14.25
2019-01-29T22:46:39.683Z,14.75
2019-01-29T22:49:09.220Z,15.05
2019-01-29T22:51:38.841Z,14.15
2019-01-29T22:54:08.556Z,12.90
2019-01-29T22:56:38.301Z,14.53
2019-01-29T22:59:08.093Z,12.45
2019-01-29T23:01:41.804Z,12.20
2019-01-29T23:04:24.296Z,12.07
2019-01-29T23:07:07.652Z,12.33
2019-01-29T23:09:37.313Z,12.23
2019-01-29T23:12:06.789Z,13.85
2019-01-29T23:14:35.962Z,12.45
2019-01-29T23:17:05.450Z,13.95
2019-01-29T23:19:34.949Z,12.73
2019-01-29T23:22:04.462Z,13.18
2019-01-29T23:24:33.849Z,13.48
2019-01-29T23:27:03.172Z,13.22
2019-01-29T23:29:32.673Z,12.95
2019-01-29T23:32:01.894Z,12.80
2019-01-29T23:34:31.576Z,13.32
2019-01-29T23:37:01.098Z,12.80
2019-01-29T23:39:30.370Z,14.15
2019-01-29T23:41:59.946Z,13.18
2019-01-29T23:44:29.632Z,12.68
2019-01-29T23:46:58.984Z,12.85
2019-01-29T23:49:28.627Z,12.98
2019-01-29T23:51:58.310Z,12.40
2019-01-29T23:54:28.157Z,12.15
2019-01-29T23:56:57.485Z,12.60
2019-01-29T23:59:27.475Z,12.15
